createdAt,value
2018-03-11T00:00:05.805Z,9.30
2018-03-11T00:01:05.376Z,9.40
2018-03-11T00:02:05.792Z,9.40
2018-03-11T00:03:05.355Z,9.30
2018-03-11T00:04:04.983Z,9.30
2018-03-11T00:05:05.077Z,9.40
2018-03-11T00:06:05.482Z,9.40
2018-03-11T00:07:05.473Z,9.40
2018-03-11T00:08:05.657Z,9.40
2018-03-11T00:09:04.898Z,9.40
2018-03-11T00:10:05.808Z,9.40
2018-03-11T00:11:05.178Z,9.40
2018-03-11T00:12:05.099Z,9.40
2018-03-11T00:13:05.200Z,9.40
2018-03-11T00:14:05.159Z,9.40
2018-03-11T00:15:04.935Z,9.50
2018-03-11T00:16:05.247Z,9.50
2018-03-11T00:17:04.930Z,9.50
2018-03-11T00:18:04.997Z,9.50
2018-03-11T00:19:04.957Z,9.50
2018-03-11T00:20:05.716Z,9.50
2018-03-11T00:21:04.830Z,9.50
2018-03-11T00:22:04.703Z,9.50
2018-03-11T00:23:04.606Z,9.50
2018-03-11T00:24:05.422Z,9.50
2018-03-11T00:25:05.438Z,9.50
2018-03-11T00:26:05.360Z,9.50
2018-03-11T00:27:06.483Z,9.60
2018-03-11T00:28:05.450Z,9.60
2018-03-11T00:29:04.924Z,9.60
2018-03-11T00:30:05.200Z,9.60
2018-03-11T00:31:04.695Z,9.60
2018-03-11T00:32:05.627Z,9.60
2018-03-11T00:33:05.377Z,9.60
2018-03-11T00:34:05.395Z,9.60
2018-03-11T00:35:04.659Z,9.60
2018-03-11T00:36:04.706Z,9.60
2018-03-11T00:37:05.464Z,9.60
2018-03-11T00:38:05.347Z,9.60
2018-03-11T00:39:05.585Z,9.70
2018-03-11T00:40:04.845Z,9.70
2018-03-11T00:41:05.304Z,9.70
2018-03-11T00:42:05.447Z,9.70
2018-03-11T00:43:04.934Z,9.60
2018-03-11T00:44:04.646Z,9.70
2018-03-11T00:45:05.599Z,9.60
2018-03-11T00:46:05.212Z,9.60
2018-03-11T00:47:05.345Z,9.60
2018-03-11T00:48:05.461Z,9.60
2018-03-11T00:49:05.166Z,9.60
2018-03-11T00:50:05.081Z,9.60
2018-03-11T00:51:05.081Z,9.60
2018-03-11T00:52:04.797Z,9.60
2018-03-11T00:53:05.027Z,9.60
2018-03-11T00:54:05.106Z,9.60
2018-03-11T00:55:05.156Z,9.60
2018-03-11T00:56:05.266Z,9.60
2018-03-11T00:57:05.078Z,9.60
2018-03-11T00:58:09.953Z,9.60
2018-03-11T00:59:05.343Z,9.60
2018-03-11T01:00:05.516Z,9.60
2018-03-11T01:01:05.221Z,9.60
2018-03-11T01:02:05.072Z,9.60
2018-03-11T01:03:04.923Z,9.60
2018-03-11T01:04:04.939Z,9.60
2018-03-11T01:05:04.990Z,9.60
2018-03-11T01:06:06.120Z,9.60
2018-03-11T01:07:04.672Z,9.60
2018-03-11T01:08:05.431Z,9.60
2018-03-11T01:09:05.275Z,9.60
2018-03-11T01:10:05.112Z,9.60
2018-03-11T01:11:05.159Z,9.60
2018-03-11T01:12:04.966Z,9.60
2018-03-11T01:13:04.885Z,9.60
2018-03-11T01:14:05.469Z,9.60
2018-03-11T01:15:05.008Z,9.60
2018-03-11T01:16:05.270Z,9.60
2018-03-11T01:17:05.004Z,9.60
2018-03-11T01:18:05.315Z,9.60
2018-03-11T01:19:05.009Z,9.60
2018-03-11T01:20:10.560Z,9.60
2018-03-11T01:21:05.434Z,9.60
2018-03-11T01:22:04.815Z,9.60
2018-03-11T01:23:05.012Z,9.60
2018-03-11T01:24:05.173Z,9.60
2018-03-11T01:25:05.133Z,9.60
2018-03-11T01:26:04.981Z,9.60
2018-03-11T01:27:05.050Z,9.60
2018-03-11T01:28:04.763Z,9.60
2018-03-11T01:29:05.205Z,9.60
2018-03-11T01:30:04.854Z,9.60
2018-03-11T01:31:05.538Z,9.60
2018-03-11T01:32:05.128Z,9.60
2018-03-11T01:33:04.664Z,9.60
2018-03-11T01:34:04.893Z,9.60
2018-03-11T01:35:04.877Z,9.60
2018-03-11T01:36:05.516Z,9.60
2018-03-11T01:37:05.466Z,9.60
2018-03-11T01:38:05.606Z,9.60
2018-03-11T01:39:05.479Z,9.60
2018-03-11T01:40:05.085Z,9.60
2018-03-11T01:41:05.098Z,9.60
2018-03-11T01:42:04.666Z,9.60
2018-03-11T01:43:05.108Z,9.60
2018-03-11T01:44:05.413Z,9.60
2018-03-11T01:45:05.530Z,9.60
2018-03-11T01:46:04.676Z,9.60
2018-03-11T01:47:05.582Z,9.60
2018-03-11T01:48:04.670Z,9.60
2018-03-11T01:49:05.655Z,9.60
2018-03-11T01:50:05.171Z,9.60
2018-03-11T01:51:05.617Z,9.60
2018-03-11T01:52:05.367Z,9.60
2018-03-11T01:53:05.025Z,9.60
2018-03-11T01:54:05.471Z,9.60
2018-03-11T01:55:04.745Z,9.60
2018-03-11T01:56:05.400Z,9.60
2018-03-11T01:57:05.053Z,9.60
2018-03-11T01:58:04.855Z,9.60
2018-03-11T01:59:05.328Z,9.50
2018-03-11T02:00:05.373Z,9.60
2018-03-11T02:01:05.572Z,9.60
2018-03-11T02:02:05.668Z,9.60
2018-03-11T02:03:05.241Z,9.50
2018-03-11T02:04:05.514Z,9.50
2018-03-11T02:05:05.644Z,9.60
2018-03-11T02:06:05.739Z,9.60
2018-03-11T02:07:05.594Z,9.50
2018-03-11T02:08:04.726Z,9.50
2018-03-11T02:09:05.602Z,9.50
2018-03-11T02:10:05.706Z,9.50
2018-03-11T02:11:05.316Z,9.50
2018-03-11T02:12:04.948Z,9.50
2018-03-11T02:13:05.728Z,9.50
2018-03-11T02:14:06.402Z,9.50
2018-03-11T02:15:04.795Z,9.60
2018-03-11T02:16:05.672Z,9.60
2018-03-11T02:17:05.091Z,9.60
2018-03-11T02:18:04.747Z,9.60
2018-03-11T02:19:04.812Z,9.60
2018-03-11T02:20:05.127Z,9.60
2018-03-11T02:21:05.029Z,9.60
2018-03-11T02:22:04.938Z,9.60
2018-03-11T02:23:04.857Z,9.60
2018-03-11T02:24:04.900Z,9.60
2018-03-11T02:25:05.608Z,9.60
2018-03-11T02:26:05.456Z,9.60
2018-03-11T02:27:05.231Z,9.60
2018-03-11T02:28:04.979Z,9.60
2018-03-11T02:29:04.725Z,9.50
2018-03-11T02:30:04.857Z,9.50
2018-03-11T02:31:04.965Z,9.50
2018-03-11T02:32:05.074Z,9.50
2018-03-11T02:33:05.038Z,9.50
2018-03-11T02:34:04.885Z,9.60
2018-03-11T02:35:04.832Z,9.50
2018-03-11T02:36:05.397Z,9.50
2018-03-11T02:37:04.689Z,9.50
2018-03-11T02:38:04.991Z,9.50
2018-03-11T02:39:04.882Z,9.50
2018-03-11T02:40:04.862Z,9.50
2018-03-11T02:41:04.751Z,9.50
2018-03-11T02:42:05.452Z,9.50
2018-03-11T02:43:05.496Z,9.50
2018-03-11T02:44:05.574Z,9.40
2018-03-11T02:45:05.554Z,9.40
2018-03-11T02:46:04.923Z,9.40
2018-03-11T02:47:04.899Z,9.40
2018-03-11T02:48:04.783Z,9.40
2018-03-11T02:49:05.413Z,9.40
2018-03-11T02:50:04.899Z,9.40
2018-03-11T02:51:05.025Z,9.30
2018-03-11T02:52:05.554Z,9.30
2018-03-11T02:53:05.300Z,9.30
2018-03-11T02:54:05.214Z,9.30
2018-03-11T02:55:05.064Z,9.30
2018-03-11T02:56:05.116Z,9.20
2018-03-11T02:57:05.132Z,9.20
2018-03-11T02:58:05.033Z,9.20
2018-03-11T02:59:04.834Z,9.20
2018-03-11T03:00:04.626Z,9.20
2018-03-11T03:01:05.496Z,9.20
2018-03-11T03:02:04.729Z,9.20
2018-03-11T03:03:05.624Z,9.10
2018-03-11T03:04:04.746Z,9.10
2018-03-11T03:05:05.356Z,9.10
2018-03-11T03:06:05.368Z,9.10
2018-03-11T03:07:05.303Z,9.10
2018-03-11T03:08:05.308Z,9.10
2018-03-11T03:09:05.349Z,9.10
2018-03-11T03:10:05.263Z,9.10
2018-03-11T03:11:05.318Z,9.10
2018-03-11T03:12:04.688Z,9.10
2018-03-11T03:13:05.592Z,9.10
2018-03-11T03:14:04.963Z,9.10
2018-03-11T03:15:04.998Z,9.10
2018-03-11T03:16:05.101Z,9.10
2018-03-11T03:17:04.919Z,9.10
2018-03-11T03:18:05.326Z,9.10
2018-03-11T03:19:05.469Z,9.10
2018-03-11T03:20:04.743Z,9.10
2018-03-11T03:21:04.815Z,9.10
2018-03-11T03:22:04.724Z,9.10
2018-03-11T03:23:04.725Z,9.10
2018-03-11T03:24:05.423Z,9.10
2018-03-11T03:25:05.348Z,9.10
2018-03-11T03:26:05.536Z,9.10
2018-03-11T03:27:05.534Z,9.10
2018-03-11T03:28:05.491Z,9.10
2018-03-11T03:29:05.023Z,9.10
2018-03-11T03:30:05.144Z,9.10
2018-03-11T03:31:05.284Z,9.10
2018-03-11T03:32:06.424Z,9.10
2018-03-11T03:33:04.782Z,9.10
2018-03-11T03:34:05.586Z,9.20
2018-03-11T03:35:05.572Z,9.20
2018-03-11T03:36:05.597Z,9.20
2018-03-11T03:37:05.157Z,9.20
2018-03-11T03:38:04.888Z,9.20
2018-03-11T03:39:05.275Z,9.20
2018-03-11T03:40:05.255Z,9.20
2018-03-11T03:41:05.218Z,9.30
2018-03-11T03:42:05.373Z,9.20
2018-03-11T03:43:05.439Z,9.30
2018-03-11T03:44:04.797Z,9.30
2018-03-11T03:45:05.231Z,9.30
2018-03-11T03:46:05.665Z,9.30
2018-03-11T03:47:05.600Z,9.30
2018-03-11T03:48:05.531Z,9.30
2018-03-11T03:49:04.910Z,9.30
2018-03-11T03:50:04.814Z,9.30
2018-03-11T03:51:04.696Z,9.30
2018-03-11T03:52:04.814Z,9.30
2018-03-11T03:53:05.146Z,9.30
2018-03-11T03:54:04.957Z,9.30
2018-03-11T03:55:04.804Z,9.30
2018-03-11T03:56:04.809Z,9.30
2018-03-11T03:57:04.852Z,9.30
2018-03-11T03:58:05.145Z,9.30
2018-03-11T03:59:05.384Z,9.30
2018-03-11T04:00:05.241Z,9.30
2018-03-11T04:01:05.059Z,9.30
2018-03-11T04:02:05.060Z,9.30
2018-03-11T04:03:05.121Z,9.30
2018-03-11T04:04:04.816Z,9.30
2018-03-11T04:05:05.142Z,9.30
2018-03-11T04:06:08.758Z,9.30
2018-03-11T04:07:04.751Z,9.30
2018-03-11T04:08:05.211Z,9.30
2018-03-11T04:09:04.709Z,9.30
2018-03-11T04:10:05.064Z,9.30
2018-03-11T04:11:05.224Z,9.30
2018-03-11T04:12:04.690Z,9.30
2018-03-11T04:13:05.672Z,9.30
2018-03-11T04:14:05.023Z,9.30
2018-03-11T04:15:04.946Z,9.30
2018-03-11T04:16:05.280Z,9.30
2018-03-11T04:17:04.991Z,9.30
2018-03-11T04:18:04.929Z,9.30
2018-03-11T04:19:05.552Z,9.30
2018-03-11T04:20:05.524Z,9.30
2018-03-11T04:21:05.128Z,9.30
2018-03-11T04:22:05.086Z,9.30
2018-03-11T04:23:04.910Z,9.30
2018-03-11T04:24:05.186Z,9.30
2018-03-11T04:25:04.735Z,9.30
2018-03-11T04:26:04.682Z,9.30
2018-03-11T04:27:05.298Z,9.30
2018-03-11T04:28:05.316Z,9.30
2018-03-11T04:29:06.618Z,9.20
2018-03-11T04:30:04.765Z,9.30
2018-03-11T04:31:04.899Z,9.30
2018-03-11T04:32:05.374Z,9.30
2018-03-11T04:33:05.523Z,9.30
2018-03-11T04:34:05.518Z,9.20
2018-03-11T04:35:05.027Z,9.30
2018-03-11T04:36:05.011Z,9.30
2018-03-11T04:37:05.356Z,9.20
2018-03-11T04:38:05.093Z,9.20
2018-03-11T04:39:04.748Z,9.20
2018-03-11T04:40:05.468Z,9.20
2018-03-11T04:41:05.210Z,9.20
2018-03-11T04:42:04.956Z,9.20
2018-03-11T04:43:04.871Z,9.20
2018-03-11T04:44:04.935Z,9.20
2018-03-11T04:45:05.668Z,9.10
2018-03-11T04:46:05.074Z,9.10
2018-03-11T04:47:04.893Z,9.10
2018-03-11T04:48:05.455Z,9.10
2018-03-11T04:49:05.474Z,9.10
2018-03-11T04:50:05.526Z,9.10
2018-03-11T04:51:05.567Z,9.10
2018-03-11T04:52:05.526Z,9.10
2018-03-11T04:53:05.481Z,9.00
2018-03-11T04:54:05.258Z,9.00
2018-03-11T04:55:04.643Z,9.00
2018-03-11T04:56:05.566Z,9.00
2018-03-11T04:57:05.041Z,9.00
2018-03-11T04:58:05.036Z,9.00
2018-03-11T04:59:05.020Z,9.00
2018-03-11T05:00:05.908Z,9.00
2018-03-11T05:01:05.277Z,9.00
2018-03-11T05:02:04.802Z,9.00
2018-03-11T05:03:04.856Z,8.90
2018-03-11T05:04:04.870Z,8.90
2018-03-11T05:05:04.866Z,8.90
2018-03-11T05:06:04.896Z,8.80
2018-03-11T05:07:05.283Z,8.80
2018-03-11T05:08:04.847Z,8.80
2018-03-11T05:09:04.850Z,8.80
2018-03-11T05:10:04.821Z,8.70
2018-03-11T05:11:05.504Z,8.70
2018-03-11T05:12:04.853Z,8.70
2018-03-11T05:13:05.335Z,8.70
2018-03-11T05:14:04.783Z,8.60
2018-03-11T05:15:04.871Z,8.60
2018-03-11T05:16:05.591Z,8.60
2018-03-11T05:17:05.297Z,8.50
2018-03-11T05:18:05.426Z,8.50
2018-03-11T05:19:04.817Z,8.50
2018-03-11T05:20:04.842Z,8.50
2018-03-11T05:21:04.746Z,8.40
2018-03-11T05:22:04.764Z,8.50
2018-03-11T05:23:05.421Z,8.40
2018-03-11T05:24:05.323Z,8.40
2018-03-11T05:25:08.593Z,8.40
2018-03-11T05:26:04.991Z,8.40
2018-03-11T05:27:05.728Z,8.40
2018-03-11T05:28:05.445Z,8.40
2018-03-11T05:29:05.106Z,8.40
2018-03-11T05:30:10.651Z,8.30
2018-03-11T05:31:04.971Z,8.30
2018-03-11T05:32:09.399Z,8.30
2018-03-11T05:33:05.385Z,8.30
2018-03-11T05:34:05.483Z,8.30
2018-03-11T05:35:04.922Z,8.30
2018-03-11T05:36:05.611Z,8.30
2018-03-11T05:37:05.009Z,8.30
2018-03-11T05:38:05.298Z,8.20
2018-03-11T05:39:05.199Z,8.20
2018-03-11T05:40:05.530Z,8.20
2018-03-11T05:41:05.784Z,8.20
2018-03-11T05:42:05.462Z,8.20
2018-03-11T05:43:05.174Z,8.10
2018-03-11T05:44:05.196Z,8.10
2018-03-11T05:45:05.501Z,8.10
2018-03-11T05:46:04.593Z,8.00
2018-03-11T05:47:05.639Z,8.00
2018-03-11T05:48:05.328Z,8.00
2018-03-11T05:49:05.171Z,8.00
2018-03-11T05:50:04.841Z,8.00
2018-03-11T05:51:05.491Z,8.00
2018-03-11T05:52:05.522Z,8.00
2018-03-11T05:53:05.441Z,8.00
2018-03-11T05:54:05.478Z,8.00
2018-03-11T05:55:05.565Z,8.00
2018-03-11T05:56:05.096Z,8.00
2018-03-11T05:57:05.607Z,7.90
2018-03-11T05:58:04.994Z,7.90
2018-03-11T05:59:04.831Z,7.90
2018-03-11T06:00:05.237Z,7.90
2018-03-11T06:01:04.991Z,7.90
2018-03-11T06:02:05.440Z,7.90
2018-03-11T06:03:05.315Z,7.90
2018-03-11T06:04:05.474Z,8.00
2018-03-11T06:05:05.051Z,8.00
2018-03-11T06:06:05.484Z,8.00
2018-03-11T06:07:08.157Z,8.00
2018-03-11T06:08:04.877Z,8.00
2018-03-11T06:09:04.841Z,8.00
2018-03-11T06:10:04.798Z,8.10
2018-03-11T06:11:04.940Z,8.10
2018-03-11T06:12:04.688Z,8.10
2018-03-11T06:13:05.243Z,8.20
2018-03-11T06:14:04.876Z,8.20
2018-03-11T06:15:05.042Z,8.20
2018-03-11T06:16:05.011Z,8.20
2018-03-11T06:17:05.266Z,8.20
2018-03-11T06:18:05.640Z,8.20
2018-03-11T06:19:05.138Z,8.20
2018-03-11T06:20:05.329Z,8.30
2018-03-11T06:21:05.003Z,8.30
2018-03-11T06:22:05.529Z,8.30
2018-03-11T06:23:04.917Z,8.40
2018-03-11T06:24:05.296Z,8.50
2018-03-11T06:25:04.793Z,8.60
2018-03-11T06:26:05.416Z,8.70
2018-03-11T06:27:04.875Z,8.80
2018-03-11T06:28:05.174Z,8.90
2018-03-11T06:29:05.140Z,9.00
2018-03-11T06:30:04.797Z,9.10
2018-03-11T06:31:05.030Z,9.20
2018-03-11T06:32:05.628Z,9.40
2018-03-11T06:33:05.093Z,9.40
2018-03-11T06:34:05.152Z,9.60
2018-03-11T06:35:05.140Z,9.70
2018-03-11T06:36:05.383Z,9.80
2018-03-11T06:37:05.712Z,9.90
2018-03-11T06:38:05.285Z,10.00
2018-03-11T06:39:05.375Z,10.10
2018-03-11T06:40:05.333Z,10.20
2018-03-11T06:41:05.480Z,10.30
2018-03-11T06:42:05.518Z,10.40
2018-03-11T06:43:05.429Z,10.50
2018-03-11T06:44:05.095Z,10.50
2018-03-11T06:45:05.432Z,10.50
2018-03-11T06:46:04.748Z,10.50
2018-03-11T06:47:05.727Z,10.50
2018-03-11T06:48:05.625Z,10.60
2018-03-11T06:49:04.795Z,10.60
2018-03-11T06:50:05.358Z,10.60
2018-03-11T06:51:05.083Z,10.70
2018-03-11T06:52:05.123Z,10.70
2018-03-11T06:53:05.812Z,10.80
2018-03-11T06:54:05.108Z,10.90
2018-03-11T06:55:05.565Z,10.90
2018-03-11T06:56:05.500Z,11.00
2018-03-11T06:57:05.159Z,11.10
2018-03-11T06:58:04.956Z,11.10
2018-03-11T06:59:05.078Z,11.20
2018-03-11T07:00:05.074Z,11.30
2018-03-11T07:01:05.310Z,11.30
2018-03-11T07:02:05.600Z,11.40
2018-03-11T07:03:04.964Z,11.50
2018-03-11T07:04:05.648Z,11.60
2018-03-11T07:05:05.661Z,11.70
2018-03-11T07:06:05.845Z,11.80
2018-03-11T07:07:05.609Z,11.90
2018-03-11T07:08:04.677Z,11.90
2018-03-11T07:09:05.183Z,12.00
2018-03-11T07:10:05.126Z,12.10
2018-03-11T07:11:05.242Z,12.20
2018-03-11T07:12:05.237Z,12.20
2018-03-11T07:13:05.248Z,12.30
2018-03-11T07:14:05.353Z,12.40
2018-03-11T07:15:05.400Z,12.40
2018-03-11T07:16:05.172Z,12.50
2018-03-11T07:17:05.092Z,12.60
2018-03-11T07:18:05.040Z,12.60
2018-03-11T07:19:05.104Z,12.70
2018-03-11T07:20:05.344Z,12.70
2018-03-11T07:21:05.349Z,12.80
2018-03-11T07:22:04.801Z,12.80
2018-03-11T07:23:06.156Z,12.80
2018-03-11T07:24:05.165Z,12.90
2018-03-11T07:25:05.653Z,12.90
2018-03-11T07:26:05.266Z,12.90
2018-03-11T07:27:05.597Z,12.90
2018-03-11T07:28:04.698Z,13.00
2018-03-11T07:29:05.199Z,13.00
2018-03-11T07:30:04.883Z,13.00
2018-03-11T07:31:05.043Z,13.00
2018-03-11T07:32:07.488Z,13.00
2018-03-11T07:33:04.956Z,13.00
2018-03-11T07:34:05.619Z,13.00
2018-03-11T07:35:05.545Z,13.00
2018-03-11T07:36:05.116Z,13.00
2018-03-11T07:37:05.055Z,13.00
2018-03-11T07:38:05.445Z,13.00
2018-03-11T07:39:05.516Z,13.00
2018-03-11T07:40:05.659Z,13.00
2018-03-11T07:41:05.677Z,13.00
2018-03-11T07:42:06.087Z,13.00
2018-03-11T07:43:05.083Z,13.00
2018-03-11T07:44:04.756Z,13.00
2018-03-11T07:45:05.111Z,13.10
2018-03-11T07:46:05.225Z,13.10
2018-03-11T07:47:05.888Z,13.10
2018-03-11T07:48:07.547Z,13.10
2018-03-11T07:49:05.097Z,13.10
2018-03-11T07:50:05.070Z,13.10
2018-03-11T07:51:05.764Z,13.10
2018-03-11T07:52:05.133Z,13.10
2018-03-11T07:53:05.078Z,13.10
2018-03-11T07:54:05.350Z,13.20
2018-03-11T07:55:06.185Z,13.20
2018-03-11T07:56:05.615Z,13.20
2018-03-11T07:57:04.998Z,13.20
2018-03-11T07:58:05.225Z,13.20
2018-03-11T07:59:05.688Z,13.30
2018-03-11T08:00:04.966Z,13.30
2018-03-11T08:01:05.139Z,13.30
2018-03-11T08:02:05.851Z,13.30
2018-03-11T08:03:05.594Z,13.30
2018-03-11T08:04:05.436Z,13.30
2018-03-11T08:05:05.492Z,13.30
2018-03-11T08:06:05.643Z,13.30
2018-03-11T08:07:05.032Z,13.30
2018-03-11T08:08:04.855Z,13.30
2018-03-11T08:09:05.615Z,13.40
2018-03-11T08:10:04.819Z,13.40
2018-03-11T08:11:05.398Z,13.40
2018-03-11T08:12:05.181Z,13.40
2018-03-11T08:13:05.439Z,13.40
2018-03-11T08:14:04.710Z,13.40
2018-03-11T08:15:05.540Z,13.30
2018-03-11T08:16:05.520Z,13.40
2018-03-11T08:17:05.073Z,13.40
2018-03-11T08:18:05.166Z,13.40
2018-03-11T08:19:05.084Z,13.40
2018-03-11T08:20:05.398Z,13.40
2018-03-11T08:21:05.281Z,13.40
2018-03-11T08:22:05.082Z,13.40
2018-03-11T08:23:04.815Z,13.40
2018-03-11T08:24:04.807Z,13.50
2018-03-11T08:25:05.416Z,13.50
2018-03-11T08:26:05.438Z,13.50
2018-03-11T08:27:05.594Z,13.50
2018-03-11T08:28:05.257Z,13.50
2018-03-11T08:29:04.991Z,13.50
2018-03-11T08:30:04.853Z,13.40
2018-03-11T08:31:05.190Z,13.40
2018-03-11T08:32:05.267Z,13.40
2018-03-11T08:33:05.550Z,13.40
2018-03-11T08:34:05.741Z,13.30
2018-03-11T08:35:04.901Z,13.30
2018-03-11T08:36:06.568Z,13.30
2018-03-11T08:37:04.866Z,13.30
2018-03-11T08:38:04.907Z,13.30
2018-03-11T08:39:04.964Z,13.20
2018-03-11T08:40:04.992Z,13.20
2018-03-11T08:41:05.317Z,13.20
2018-03-11T08:42:05.188Z,13.30
2018-03-11T08:43:05.041Z,13.30
2018-03-11T08:44:04.875Z,13.30
2018-03-11T08:45:05.085Z,13.30
2018-03-11T08:46:05.006Z,13.30
2018-03-11T08:47:04.991Z,13.30
2018-03-11T08:48:05.091Z,13.30
2018-03-11T08:49:04.993Z,13.30
2018-03-11T08:50:04.977Z,13.30
2018-03-11T08:51:04.997Z,13.30
2018-03-11T08:52:04.619Z,13.40
2018-03-11T08:53:06.465Z,13.40
2018-03-11T08:54:06.907Z,13.30
2018-03-11T08:55:05.716Z,13.40
2018-03-11T08:56:06.363Z,13.40
2018-03-11T08:57:05.235Z,13.40
2018-03-11T08:58:06.182Z,13.40
2018-03-11T08:59:05.287Z,13.40
2018-03-11T09:00:04.988Z,13.50
2018-03-11T09:01:04.788Z,13.50
2018-03-11T09:02:04.817Z,13.50
2018-03-11T09:03:04.720Z,13.60
2018-03-11T09:04:05.222Z,13.60
2018-03-11T09:05:05.461Z,13.60
2018-03-11T09:06:05.219Z,13.70
2018-03-11T09:07:04.974Z,13.70
2018-03-11T09:08:05.069Z,13.70
2018-03-11T09:09:05.202Z,13.80
2018-03-11T09:10:05.574Z,13.80
2018-03-11T09:11:05.340Z,13.80
2018-03-11T09:12:05.271Z,13.90
2018-03-11T09:13:05.794Z,13.90
2018-03-11T09:14:05.740Z,13.90
2018-03-11T09:15:05.186Z,13.90
2018-03-11T09:16:04.844Z,13.90
2018-03-11T09:17:04.827Z,14.00
2018-03-11T09:18:05.438Z,14.00
2018-03-11T09:19:05.505Z,14.00
2018-03-11T09:20:05.440Z,14.00
2018-03-11T09:21:05.020Z,14.00
2018-03-11T09:22:04.925Z,14.10
2018-03-11T09:23:05.101Z,14.10
2018-03-11T09:24:05.175Z,14.10
2018-03-11T09:25:05.800Z,14.10
2018-03-11T09:26:05.537Z,14.10
2018-03-11T09:27:05.511Z,14.10
2018-03-11T09:28:05.529Z,14.10
2018-03-11T09:29:05.571Z,14.10
2018-03-11T09:30:05.170Z,14.10
2018-03-11T09:31:04.879Z,14.10
2018-03-11T09:32:05.210Z,14.10
2018-03-11T09:33:04.922Z,14.10
2018-03-11T09:34:05.043Z,14.10
2018-03-11T09:35:04.656Z,14.10
2018-03-11T09:36:06.238Z,14.10
2018-03-11T09:37:05.048Z,14.10
2018-03-11T09:38:04.841Z,14.10
2018-03-11T09:39:05.489Z,14.10
2018-03-11T09:40:05.376Z,14.10
2018-03-11T09:41:04.811Z,14.10
2018-03-11T09:42:05.260Z,14.10
2018-03-11T09:43:04.827Z,14.10
2018-03-11T09:44:04.831Z,14.20
2018-03-11T09:45:04.715Z,14.20
2018-03-11T09:46:05.658Z,14.30
2018-03-11T09:47:05.372Z,14.30
2018-03-11T09:48:05.748Z,14.30
2018-03-11T09:49:05.033Z,14.40
2018-03-11T09:50:05.271Z,14.40
2018-03-11T09:51:05.240Z,14.40
2018-03-11T09:52:05.049Z,14.50
2018-03-11T09:53:05.052Z,14.50
2018-03-11T09:54:04.778Z,14.60
2018-03-11T09:55:05.501Z,14.60
2018-03-11T09:56:04.859Z,14.70
2018-03-11T09:57:04.853Z,14.70
2018-03-11T09:58:05.570Z,14.70
2018-03-11T09:59:05.677Z,14.80
2018-03-11T10:00:05.549Z,14.80
2018-03-11T10:01:05.108Z,14.90
2018-03-11T10:02:04.896Z,14.90
2018-03-11T10:03:04.819Z,15.00
2018-03-11T10:04:05.536Z,15.00
2018-03-11T10:05:05.529Z,15.00
2018-03-11T10:06:04.923Z,15.00
2018-03-11T10:07:05.343Z,15.10
2018-03-11T10:08:04.811Z,15.10
2018-03-11T10:09:05.029Z,15.20
2018-03-11T10:10:05.766Z,15.20
2018-03-11T10:11:04.751Z,15.30
2018-03-11T10:12:05.436Z,15.30
2018-03-11T10:13:05.460Z,15.40
2018-03-11T10:14:05.142Z,15.50
2018-03-11T10:15:04.842Z,15.50
2018-03-11T10:16:04.743Z,15.60
2018-03-11T10:17:05.417Z,15.60
2018-03-11T10:18:05.253Z,15.70
2018-03-11T10:19:08.689Z,15.70
2018-03-11T10:20:05.302Z,15.70
2018-03-11T10:21:05.064Z,15.70
2018-03-11T10:22:04.884Z,15.70
2018-03-11T10:23:05.638Z,15.80
2018-03-11T10:24:04.893Z,15.80
2018-03-11T10:25:05.474Z,15.80
2018-03-11T10:26:05.465Z,15.80
2018-03-11T10:27:05.185Z,15.80
2018-03-11T10:28:04.836Z,15.80
2018-03-11T10:29:04.979Z,15.80
2018-03-11T10:30:05.437Z,15.80
2018-03-11T10:31:05.428Z,15.90
2018-03-11T10:32:05.080Z,15.90
2018-03-11T10:33:05.165Z,15.90
2018-03-11T10:34:04.902Z,15.90
2018-03-11T10:35:05.075Z,15.90
2018-03-11T10:36:05.211Z,16.00
2018-03-11T10:37:05.341Z,16.00
2018-03-11T10:38:05.105Z,16.10
2018-03-11T10:39:05.420Z,16.10
2018-03-11T10:40:05.536Z,16.20
2018-03-11T10:41:05.012Z,16.20
2018-03-11T10:42:04.693Z,16.20
2018-03-11T10:43:05.145Z,16.30
2018-03-11T10:44:04.817Z,16.30
2018-03-11T10:45:05.484Z,16.40
2018-03-11T10:46:05.155Z,16.40
2018-03-11T10:47:04.773Z,16.50
2018-03-11T10:48:05.570Z,16.50
2018-03-11T10:49:05.318Z,16.50
2018-03-11T10:50:05.001Z,16.60
2018-03-11T10:51:05.034Z,16.60
2018-03-11T10:52:05.215Z,16.60
2018-03-11T10:53:05.110Z,16.70
2018-03-11T10:54:04.897Z,16.70
2018-03-11T10:55:05.217Z,16.70
2018-03-11T10:56:04.851Z,16.80
2018-03-11T10:57:04.990Z,16.80
2018-03-11T10:58:04.726Z,16.80
2018-03-11T10:59:05.288Z,16.90
2018-03-11T11:00:05.189Z,16.90
2018-03-11T11:01:04.634Z,17.00
2018-03-11T11:02:05.329Z,17.00
2018-03-11T11:03:04.854Z,17.00
2018-03-11T11:04:04.897Z,17.10
2018-03-11T11:05:04.779Z,17.10
2018-03-11T11:06:05.418Z,17.10
2018-03-11T11:07:05.434Z,17.10
2018-03-11T11:08:04.714Z,17.20
2018-03-11T11:09:05.439Z,17.20
2018-03-11T11:10:05.318Z,17.20
2018-03-11T11:11:05.143Z,17.20
2018-03-11T11:12:05.020Z,17.30
2018-03-11T11:13:05.221Z,17.30
2018-03-11T11:14:05.248Z,17.30
2018-03-11T11:15:05.383Z,17.40
2018-03-11T11:16:05.409Z,17.40
2018-03-11T11:17:05.203Z,17.40
2018-03-11T11:18:04.788Z,17.40
2018-03-11T11:19:05.505Z,17.40
2018-03-11T11:20:05.524Z,17.40
2018-03-11T11:21:05.459Z,17.50
2018-03-11T11:22:05.163Z,17.50
2018-03-11T11:23:05.603Z,17.50
2018-03-11T11:24:05.523Z,17.60
2018-03-11T11:25:05.339Z,17.60
2018-03-11T11:26:04.747Z,17.60
2018-03-11T11:27:05.398Z,17.70
2018-03-11T11:28:06.182Z,17.70
2018-03-11T11:29:05.333Z,17.80
2018-03-11T11:30:05.151Z,17.80
2018-03-11T11:31:05.758Z,17.80
2018-03-11T11:32:05.417Z,17.80
2018-03-11T11:33:04.990Z,17.90
2018-03-11T11:34:05.614Z,17.90
2018-03-11T11:35:04.837Z,17.90
2018-03-11T11:36:04.949Z,17.80
2018-03-11T11:37:05.080Z,17.80
2018-03-11T11:38:05.545Z,17.80
2018-03-11T11:39:04.943Z,17.80
2018-03-11T11:40:04.811Z,17.80
2018-03-11T11:41:05.555Z,17.80
2018-03-11T11:42:05.467Z,17.80
2018-03-11T11:43:05.475Z,17.80
2018-03-11T11:44:05.117Z,17.80
2018-03-11T11:45:05.487Z,17.90
2018-03-11T11:46:05.313Z,17.90
2018-03-11T11:47:05.536Z,17.90
2018-03-11T11:48:04.980Z,18.00
2018-03-11T11:49:04.820Z,18.00
2018-03-11T11:50:04.887Z,18.00
2018-03-11T11:51:04.922Z,18.10
2018-03-11T11:52:05.536Z,18.10
2018-03-11T11:53:05.034Z,18.20
2018-03-11T11:54:04.715Z,18.20
2018-03-11T11:55:05.495Z,18.20
2018-03-11T11:56:05.383Z,18.30
2018-03-11T11:57:04.869Z,18.30
2018-03-11T11:58:04.756Z,18.30
2018-03-11T11:59:05.631Z,18.30
2018-03-11T12:00:05.566Z,18.30
2018-03-11T12:01:05.045Z,18.30
2018-03-11T12:02:04.752Z,18.40
2018-03-11T12:03:04.778Z,18.40
2018-03-11T12:04:05.576Z,18.40
2018-03-11T12:05:05.195Z,18.40
2018-03-11T12:06:04.687Z,18.40
2018-03-11T12:07:05.744Z,18.30
2018-03-11T12:08:05.252Z,18.30
2018-03-11T12:09:05.269Z,18.30
2018-03-11T12:10:05.192Z,18.30
2018-03-11T12:11:05.152Z,18.40
2018-03-11T12:12:04.721Z,18.40
2018-03-11T12:13:05.030Z,18.40
2018-03-11T12:14:05.119Z,18.40
2018-03-11T12:15:04.826Z,18.40
2018-03-11T12:16:05.381Z,18.40
2018-03-11T12:17:05.360Z,18.40
2018-03-11T12:18:05.283Z,18.40
2018-03-11T12:19:05.369Z,18.40
2018-03-11T12:20:05.275Z,18.40
2018-03-11T12:21:04.973Z,18.40
2018-03-11T12:22:05.082Z,18.40
2018-03-11T12:23:05.101Z,18.40
2018-03-11T12:24:05.495Z,18.40
2018-03-11T12:25:04.636Z,18.50
2018-03-11T12:26:05.543Z,18.50
2018-03-11T12:27:05.392Z,18.50
2018-03-11T12:28:04.606Z,18.50
2018-03-11T12:29:05.432Z,18.50
2018-03-11T12:30:05.200Z,18.50
2018-03-11T12:31:04.988Z,18.50
2018-03-11T12:32:05.222Z,18.50
2018-03-11T12:33:05.710Z,18.50
2018-03-11T12:34:04.784Z,18.50
2018-03-11T12:35:05.617Z,18.50
2018-03-11T12:36:05.106Z,18.50
2018-03-11T12:37:05.595Z,18.50
2018-03-11T12:38:05.493Z,18.50
2018-03-11T12:39:05.584Z,18.50
2018-03-11T12:40:05.324Z,18.50
2018-03-11T12:41:05.124Z,18.50
2018-03-11T12:42:05.088Z,18.50
2018-03-11T12:43:04.656Z,18.50
2018-03-11T12:44:04.736Z,18.50
2018-03-11T12:45:05.116Z,18.50
2018-03-11T12:46:05.240Z,18.50
2018-03-11T12:47:05.222Z,18.50
2018-03-11T12:48:05.319Z,18.50
2018-03-11T12:49:05.581Z,18.50
2018-03-11T12:50:05.458Z,18.50
2018-03-11T12:51:05.323Z,18.50
2018-03-11T12:52:05.125Z,18.50
2018-03-11T12:53:05.283Z,18.50
2018-03-11T12:54:05.099Z,18.50
2018-03-11T12:55:05.118Z,18.50
2018-03-11T12:56:04.910Z,18.50
2018-03-11T12:57:04.864Z,18.50
2018-03-11T12:58:05.456Z,18.50
2018-03-11T12:59:04.989Z,18.50
2018-03-11T13:00:05.214Z,18.50
2018-03-11T13:01:05.160Z,18.50
2018-03-11T13:02:05.274Z,18.50
2018-03-11T13:03:05.263Z,18.50
2018-03-11T13:04:06.180Z,18.50
2018-03-11T13:05:05.642Z,18.50